メインページ
METAR-TAF:

METAR-TAF

空港 :

トンコンティン国際空港

テグシガルパ, ホンジュラス

緯度: 14-03N, 経度: 087-13W, 海抜: 994m

現時点の気象観測

当レポートは24分前の14:00(UTC)に作成
の風 6kt
気温 22°C
湿度 69%
気圧 1020 hPa
視程10km以上
高度2800ftの雲は散在している
高度25000ftの千切れ雲あり

METAR: MHTG 201400Z 36006KT 9999 SCT028 BKN250 22/16 Q1020 A3012 NOSIG

時間: 08:24 (14:24 UTC)

予報

当レポートは3時間34分前の10:50(UTC)に作成
予報は20日の 12時(UTC)から 21日の 12時(UTC)まで有効
の風 10kt
視程10km以上
高度2600ftの雲は散在している
20日の 16時(UTC)から 20日の 18時(UTC)まで徐々に
東/北東の風 12kt
高度3200ftの雲はほとんどない
20日の 23時(UTC)から 21日の 01時(UTC)まで徐々に
の風 10kt
高度3000ftの雲は散在している
21日の 08時(UTC)から 21日の 10時(UTC)まで徐々に
高度1000ftの雲はほとんどない
高度2400ftの雲は散在している

TAF: MHTG 201050Z 2012/2112 36010KT 9999 SCT026 TX29/2021Z TN17/2112Z BECMG 2016/2018 06012KT FEW032 BECMG 2023/2101 36010KT SCT030 BECMG 2108/2110 FEW010 SCT024

4,000以上の空港の気象観測と天気予報(METAR報とTAF報)

利用可能な観測所は地図上に黄色い丸と赤い丸で示す。

丸の上にカーソルを重ねると観測所名を参照できる。

次にクリックすると気象観測と天気予報を参照できる。

マップの切り替え:黒色「×」印の緑ボタンをクリックして拡大、「-」印の緑ボタンをクリックして縮小、緑色の三角印をクリックして隣りの地図に切り替え


METAR-TAF: